Time;durP1;ratioP1;P1;durP2;ratioP2;P2;SDS_P1;SDS_P2;PMS_P1;PMS_P2;Temp;Humidity;BMP_temperature;BMP_pressure;BME280_temperature;BME280_humidity;BME280_pressure;Samples;Min_cycle;Max_cycle;Signal;HPM_P1;HPM_P2
2022/06/01 00:14:40;;;;;;;9.10;5.10;;;9.40;99.90;;;;;;4928424;29;20054;-83
2022/06/01 00:18:02;;;;;;;7.72;5.35;;;9.90;99.90;;;;;;4964655;28;20054;-83
2022/06/01 00:24:23;;;;;;;5.93;4.85;;;9.90;99.90;;;;;;4956891;28;20138;-83
2022/06/01 00:34:27;;;;;;;7.10;4.93;;;10.10;99.90;;;;;;5111077;27;20132;-83
2022/06/01 00:37:37;;;;;;;7.93;4.97;;;9.10;99.90;;;;;;5111256;27;20043;-84
2022/06/01 00:40:32;;;;;;;8.73;5.90;;;10.10;99.90;;;;;;5030490;28;20053;-83
2022/06/01 00:43:35;;;;;;;11.57;6.57;;;9.70;99.90;;;;;;5080163;28;20048;-83
2022/06/01 00:46:55;;;;;;;;;;;;;;;;;;;;;
2022/06/01 00:56:44;;;;;;;9.05;6.78;;;10.20;99.90;;;;;;5045908;28;20061;-84
2022/06/01 00:59:47;;;;;;;12.77;6.25;;;10.50;99.90;;;;;;4988265;28;20253;-84
2022/06/01 01:09:49;;;;;;;8.68;6.38;;;9.80;99.90;;;;;;4965530;28;20100;-84
2022/06/01 01:16:37;;;;;;;9.63;7.00;;;10.50;99.90;;;;;;4927194;29;20050;-84
2022/06/01 01:19:21;;;;;;;10.40;7.60;;;10.30;99.90;;;;;;4893739;29;20063;-84
2022/06/01 01:22:10;;;;;;;13.27;8.35;;;11.00;99.90;;;;;;4972886;28;20062;-84
2022/06/01 01:28:42;;;;;;;12.20;8.00;;;10.60;99.90;;;;;;4986921;28;20045;-83
2022/06/01 01:41:51;;;;;;;12.80;7.72;;;10.60;99.90;;;;;;4926432;28;20549;-84
2022/06/01 01:44:30;;;;;;;15.52;8.75;;;11.40;99.90;;;;;;5003927;28;20045;-84
2022/06/01 01:46:58;;;;;;;13.57;8.38;;;10.60;99.90;;;;;;5087668;28;20083;-84
2022/06/01 01:49:43;;;;;;;13.82;8.48;;;10.60;99.90;;;;;;5088949;28;20068;-84
2022/06/01 01:52:15;;;;;;;10.27;7.65;;;10.60;99.90;;;;;;5087817;28;20047;-84
2022/06/01 01:54:42;;;;;;;10.80;8.02;;;10.60;99.90;;;;;;5107592;28;20126;-83
2022/06/01 01:57:17;;;;;;;11.30;8.48;;;10.60;99.90;;;;;;5088309;28;20086;-83
2022/06/01 02:00:04;;;;;;;11.68;7.72;;;10.70;99.90;;;;;;5088973;28;20154;-84
2022/06/01 02:02:40;;;;;;;9.75;7.75;;;10.60;99.90;;;;;;5088886;28;20437;-83
2022/06/01 02:08:36;;;;;;;10.65;8.43;;;10.60;99.90;;;;;;5088660;28;20461;-83
2022/06/01 02:14:07;;;;;;;10.73;8.27;;;11.60;99.90;;;;;;5106231;28;20062;-84
2022/06/01 02:16:38;;;;;;;12.80;8.57;;;10.50;99.90;;;;;;5107060;28;20040;-84
2022/06/01 02:19:09;;;;;;;12.00;8.60;;;11.50;99.90;;;;;;5088225;28;20141;-83
2022/06/01 02:21:35;;;;;;;9.75;8.23;;;11.40;99.90;;;;;;5106279;28;20062;-84
2022/06/01 02:24:02;;;;;;;11.73;8.35;;;11.10;99.90;;;;;;5088878;28;20104;-84
2022/06/01 02:26:28;;;;;;;11.90;8.88;;;10.60;99.90;;;;;;5087480;28;20128;-84
2022/06/01 02:29:06;;;;;;;12.27;9.35;;;11.60;99.90;;;;;;5091665;28;20047;-83
2022/06/01 02:31:33;;;;;;;13.45;7.95;;;10.60;99.90;;;;;;5118748;28;20047;-82
2022/06/01 02:34:01;;;;;;;13.38;9.05;;;10.60;99.90;;;;;;5097513;28;20055;-83
2022/06/01 02:36:27;;;;;;;12.45;8.77;;;10.60;99.90;;;;;;5106712;28;20122;-84
2022/06/01 02:38:55;;;;;;;10.70;8.77;;;11.40;99.90;;;;;;5087283;28;20047;-84
2022/06/01 02:44:05;;;;;;;11.43;9.07;;;10.60;99.90;;;;;;5105742;28;20099;-83
2022/06/01 02:46:31;;;;;;;10.18;9.07;;;10.80;99.90;;;;;;5088283;28;20465;-83
2022/06/01 02:48:57;;;;;;;11.32;9.27;;;11.80;99.90;;;;;;5108905;28;20823;-83
2022/06/01 02:51:24;;;;;;;12.90;8.98;;;11.40;99.90;;;;;;5126195;27;20462;-83
2022/06/01 02:53:50;;;;;;;10.60;8.65;;;11.40;99.90;;;;;;5127214;28;20492;-84
2022/06/01 02:56:16;;;;;;;11.20;9.18;;;10.50;99.90;;;;;;5107070;28;20078;-83
2022/06/01 02:58:42;;;;;;;9.30;8.30;;;10.50;99.90;;;;;;5108785;28;20440;-83
2022/06/01 03:01:08;;;;;;;14.15;9.05;;;11.60;99.90;;;;;;5126037;28;20043;-83
2022/06/01 03:03:35;;;;;;;9.57;8.57;;;10.80;99.90;;;;;;5126988;28;20469;-82
2022/06/01 03:06:00;;;;;;;11.75;9.05;;;11.30;99.90;;;;;;5126111;28;20482;-83
2022/06/01 03:08:26;;;;;;;15.15;9.18;;;10.50;99.90;;;;;;5107804;28;20084;-83
2022/06/01 03:10:53;;;;;;;11.38;9.05;;;10.40;99.90;;;;;;5126880;28;20092;-83
2022/06/01 03:13:20;;;;;;;10.88;8.98;;;11.10;99.90;;;;;;5125832;28;20070;-83
2022/06/01 03:15:46;;;;;;;10.75;8.35;;;10.40;99.90;;;;;;5108644;28;20096;-83
2022/06/01 03:18:12;;;;;;;11.45;8.50;;;10.20;99.90;;;;;;5107694;28;20047;-82
2022/06/01 03:20:38;;;;;;;11.88;9.05;;;10.90;99.90;;;;;;5107993;28;20046;-83
2022/06/01 03:23:04;;;;;;;10.93;9.82;;;10.30;99.90;;;;;;5107282;28;20043;-83
2022/06/01 03:25:30;;;;;;;12.13;7.95;;;10.30;99.90;;;;;;5126401;28;20093;-83
2022/06/01 03:27:59;;;;;;;9.68;7.53;;;10.40;99.90;;;;;;5126379;28;20482;-83
2022/06/01 03:30:26;;;;;;;13.52;9.57;;;10.20;99.90;;;;;;5126214;28;20039;-83
2022/06/01 03:32:52;;;;;;;9.65;8.20;;;10.30;99.90;;;;;;5129504;28;20103;-83
2022/06/01 03:35:22;;;;;;;11.43;9.18;;;10.20;99.90;;;;;;5128289;28;20067;-83
2022/06/01 03:37:48;;;;;;;11.15;9.98;;;10.20;99.90;;;;;;5110810;28;20043;-83
2022/06/01 03:40:17;;;;;;;12.45;9.65;;;11.40;99.90;;;;;;5110015;28;20718;-83
2022/06/01 03:42:43;;;;;;;12.70;10.07;;;11.20;99.90;;;;;;5110189;28;20043;-83
2022/06/01 03:47:55;;;;;;;12.95;9.57;;;10.20;99.90;;;;;;5129034;27;20062;-83
2022/06/01 03:50:23;;;;;;;15.20;10.63;;;10.30;99.90;;;;;;5113639;27;20092;-84
2022/06/01 03:52:50;;;;;;;15.40;11.63;;;9.80;99.90;;;;;;5131401;27;20039;-83
2022/06/01 03:55:16;;;;;;;13.88;11.70;;;10.30;99.90;;;;;;5114353;27;20413;-83
2022/06/01 03:57:43;;;;;;;15.68;11.40;;;10.40;99.90;;;;;;5132682;27;20101;-84
2022/06/01 04:00:13;;;;;;;14.88;11.10;;;11.00;99.90;;;;;;5129319;27;20043;-83
2022/06/01 04:02:40;;;;;;;12.82;10.15;;;10.40;99.90;;;;;;5130166;27;20047;-83
2022/06/01 04:05:07;;;;;;;13.07;11.13;;;10.80;99.90;;;;;;5110862;27;20038;-83
2022/06/01 04:07:32;;;;;;;16.27;10.63;;;10.50;99.90;;;;;;5112199;27;20035;-83
2022/06/01 04:09:58;;;;;;;16.23;10.55;;;11.30;99.90;;;;;;5129670;27;20115;-83
2022/06/01 04:12:24;;;;;;;13.20;11.05;;;11.20;99.90;;;;;;5136422;27;20050;-83
2022/06/01 04:14:50;;;;;;;11.65;10.25;;;11.50;99.90;;;;;;5133127;27;20184;-83
2022/06/01 04:17:16;;;;;;;16.17;11.05;;;11.40;99.90;;;;;;5130750;27;20505;-83
2022/06/01 04:19:41;;;;;;;18.63;11.50;;;10.70;99.90;;;;;;5130265;27;20232;-83
2022/06/01 04:22:09;;;;;;;13.85;10.98;;;10.80;99.90;;;;;;5110310;27;20079;-83
2022/06/01 04:24:35;;;;;;;14.68;11.23;;;11.50;99.90;;;;;;5130060;27;20130;-83
2022/06/01 04:27:01;;;;;;;14.85;11.73;;;10.90;99.90;;;;;;5128993;27;20046;-83
2022/06/01 04:29:27;;;;;;;14.82;12.00;;;10.90;99.90;;;;;;5129395;27;20043;-83
2022/06/01 04:32:01;;;;;;;15.13;11.48;;;12.20;99.90;;;;;;5093717;27;20031;-82
2022/06/01 04:34:26;;;;;;;12.93;11.23;;;11.30;99.90;;;;;;5128450;27;20028;-84
2022/06/01 04:36:54;;;;;;;13.63;11.13;;;11.80;99.90;;;;;;5111050;27;20070;-83
2022/06/01 04:39:21;;;;;;;13.00;11.48;;;11.90;99.90;;;;;;5128469;27;20049;-83
2022/06/01 04:41:46;;;;;;;14.27;11.75;;;11.40;99.90;;;;;;5129472;27;20043;-83
2022/06/01 04:44:12;;;;;;;12.40;10.27;;;11.10;99.90;;;;;;5093276;27;20043;-83
2022/06/01 04:46:37;;;;;;;12.27;10.50;;;11.30;99.90;;;;;;5129710;27;20035;-84
2022/06/01 04:49:03;;;;;;;13.20;11.48;;;11.20;99.90;;;;;;5110573;27;20078;-85
2022/06/01 04:51:38;;;;;;;12.25;10.45;;;11.60;99.90;;;;;;5110623;27;20390;-84
2022/06/01 04:54:06;;;;;;;13.60;10.70;;;12.20;99.90;;;;;;5129630;27;20383;-85
2022/06/01 04:56:31;;;;;;;14.10;10.57;;;11.30;99.90;;;;;;5110948;27;20043;-85
2022/06/01 04:58:57;;;;;;;13.65;11.07;;;12.40;99.90;;;;;;5094173;27;20501;-85
2022/06/01 05:01:23;;;;;;;12.90;11.15;;;11.70;99.90;;;;;;5093351;27;20078;-84
2022/06/01 05:03:49;;;;;;;13.13;10.98;;;11.40;99.90;;;;;;5110835;27;20065;-86
2022/06/01 05:06:15;;;;;;;14.20;11.60;;;11.50;99.90;;;;;;5129288;27;20035;-84
2022/06/01 05:08:41;;;;;;;12.93;11.18;;;11.60;99.90;;;;;;5128568;27;20184;-88
2022/06/01 05:11:07;;;;;;;14.38;11.35;;;11.60;99.90;;;;;;5111051;27;20044;-89
2022/06/01 05:13:32;;;;;;;18.73;11.35;;;11.70;99.90;;;;;;5071677;28;20036;-87
2022/06/01 05:16:04;;;;;;;18.85;12.45;;;12.80;99.90;;;;;;5105650;27;20058;-87
2022/06/01 05:18:30;;;;;;;13.10;10.60;;;12.80;99.90;;;;;;5109350;27;20080;-88
2022/06/01 05:20:56;;;;;;;15.75;12.18;;;12.20;99.90;;;;;;5110114;27;20066;-88
2022/06/01 05:23:23;;;;;;;12.40;10.38;;;11.90;99.90;;;;;;5075988;27;20377;-88
2022/06/01 05:25:50;;;;;;;16.15;11.00;;;12.00;99.90;;;;;;5109717;27;20409;-87
2022/06/01 05:28:20;;;;;;;16.85;11.75;;;12.00;99.90;;;;;;5093730;27;20470;-86
2022/06/01 05:30:46;;;;;;;14.05;11.30;;;12.10;99.90;;;;;;5109756;27;20057;-86
2022/06/01 05:33:12;;;;;;;18.45;11.18;;;12.10;99.90;;;;;;5093692;27;20043;-87
2022/06/01 05:35:38;;;;;;;12.85;10.57;;;12.10;99.90;;;;;;5109605;27;20087;-88
2022/06/01 05:38:04;;;;;;;13.05;9.80;;;12.20;99.90;;;;;;5110271;27;20117;-88
2022/06/01 05:40:30;;;;;;;15.05;11.18;;;12.30;99.90;;;;;;5075535;27;20264;-87
2022/06/01 05:42:59;;;;;;;13.93;10.73;;;12.30;99.90;;;;;;5092722;27;20074;-87
2022/06/01 05:45:25;;;;;;;13.20;10.25;;;12.40;99.90;;;;;;5075396;27;20087;-87
2022/06/01 05:47:51;;;;;;;17.52;11.80;;;13.00;99.90;;;;;;5058867;27;20043;-92
2022/06/01 05:50:18;;;;;;;13.10;10.57;;;12.70;99.90;;;;;;5101223;27;20043;-89
2022/06/01 05:52:43;;;;;;;17.17;10.52;;;12.70;99.90;;;;;;5111324;27;20125;-87
2022/06/01 05:55:11;;;;;;;14.82;10.13;;;13.70;99.90;;;;;;5122126;27;20505;-93
2022/06/01 05:57:38;;;;;;;18.35;11.38;;;13.40;99.90;;;;;;5099777;27;20043;-91
2022/06/01 06:00:07;;;;;;;16.98;12.05;;;12.60;99.90;;;;;;5095548;27;20716;-86
2022/06/01 06:02:33;;;;;;;14.20;10.63;;;13.20;99.90;;;;;;5093452;27;20039;-88
2022/06/01 06:04:58;;;;;;;13.65;10.65;;;13.30;99.90;;;;;;5092590;27;20134;-88
2022/06/01 06:07:24;;;;;;;12.80;11.23;;;13.40;99.90;;;;;;5093628;27;20043;-91
2022/06/01 06:09:50;;;;;;;14.32;10.35;;;13.60;99.90;;;;;;5091644;27;20112;-90
2022/06/01 06:12:16;;;;;;;12.32;10.60;;;13.90;99.90;;;;;;5093204;27;20133;-88
2022/06/01 06:14:41;;;;;;;13.68;9.48;;;14.10;99.90;;;;;;5109256;27;20050;-88
2022/06/01 06:17:07;;;;;;;16.52;9.30;;;14.80;99.90;;;;;;5092175;27;20044;-87
2022/06/01 06:19:33;;;;;;;12.45;8.98;;;14.50;99.90;;;;;;5109742;27;20039;-88
2022/06/01 06:21:59;;;;;;;10.85;8.32;;;14.70;99.90;;;;;;5108468;27;20043;-88
2022/06/01 06:24:24;;;;;;;10.82;8.57;;;14.80;99.90;;;;;;5076355;27;20050;-88
2022/06/01 06:26:50;;;;;;;9.82;7.95;;;14.80;99.90;;;;;;5095339;28;20051;-88
2022/06/01 06:29:18;;;;;;;11.48;8.00;;;14.90;99.90;;;;;;5101432;27;20046;-90
2022/06/01 06:31:44;;;;;;;9.75;7.90;;;15.10;99.90;;;;;;5100567;27;20111;-89
2022/06/01 06:34:10;;;;;;;10.55;7.30;;;15.30;99.90;;;;;;5075318;28;20043;-89
2022/06/01 06:36:35;;;;;;;10.30;7.28;;;15.50;99.90;;;;;;5092503;28;20405;-89
2022/06/01 06:39:02;;;;;;;9.48;7.50;;;15.60;99.90;;;;;;5073856;27;20043;-89
2022/06/01 06:41:27;;;;;;;13.20;8.75;;;15.70;99.90;;;;;;5109676;28;20039;-88
2022/06/01 06:43:53;;;;;;;10.40;7.32;;;15.70;99.90;;;;;;5108468;28;20128;-87
2022/06/01 06:46:21;;;;;;;9.30;7.47;;;15.60;99.90;;;;;;5128235;28;20031;-88
2022/06/01 06:48:48;;;;;;;7.95;6.05;;;15.40;99.90;;;;;;5074787;28;20100;-87
2022/06/01 06:51:14;;;;;;;7.15;5.63;;;15.10;99.90;;;;;;5092110;28;20126;-88
2022/06/01 06:53:40;;;;;;;4.95;3.58;;;15.10;99.90;;;;;;5109451;28;20043;-89
2022/06/01 06:56:07;;;;;;;16.15;4.18;;;14.10;99.90;;;;;;5094976;28;20046;-89
2022/06/01 06:58:33;;;;;;;5.28;3.53;;;13.70;99.90;;;;;;5110702;28;20116;-89
2022/06/01 07:00:58;;;;;;;4.72;2.90;;;13.90;99.90;;;;;;5109131;28;20126;-88
2022/06/01 07:03:24;;;;;;;6.38;2.88;;;13.20;99.90;;;;;;5110046;28;20146;-88
2022/06/01 07:06:09;;;;;;;4.57;2.80;;;12.90;99.90;;;;;;5108810;28;20104;-87
2022/06/01 07:08:35;;;;;;;5.00;3.42;;;12.20;99.90;;;;;;5091308;28;20045;-87
2022/06/01 07:11:01;;;;;;;5.30;3.30;;;12.00;99.90;;;;;;5075613;28;20130;-87
2022/06/01 07:13:27;;;;;;;7.25;4.70;;;11.90;99.90;;;;;;5091102;28;20092;-86
2022/06/01 07:16:24;;;;;;;5.13;4.10;;;11.70;99.90;;;;;;5127949;28;20122;-86
2022/06/01 07:18:52;;;;;;;8.57;4.38;;;11.90;99.90;;;;;;5107828;28;20138;-86
2022/06/01 07:21:19;;;;;;;6.95;4.50;;;11.60;99.90;;;;;;5108877;28;20043;-86
2022/06/01 07:23:46;;;;;;;7.55;5.60;;;11.70;99.90;;;;;;5112243;27;20065;-85
2022/06/01 07:26:18;;;;;;;7.53;5.72;;;11.80;99.90;;;;;;5095054;27;20043;-85
2022/06/01 07:28:44;;;;;;;8.90;6.07;;;11.80;99.90;;;;;;5113618;27;20039;-86
2022/06/01 07:31:11;;;;;;;13.40;7.00;;;12.80;99.90;;;;;;5130637;27;20088;-86
2022/06/01 07:33:36;;;;;;;12.30;6.35;;;12.00;99.90;;;;;;5114081;27;20125;-86
2022/06/01 07:36:05;;;;;;;8.88;6.43;;;12.10;99.90;;;;;;5132043;27;20504;-86
2022/06/01 07:44:31;;;;;;;7.95;5.30;;;12.70;99.90;;;;;;5099987;27;20062;-87
2022/06/01 07:46:57;;;;;;;6.20;5.35;;;13.10;99.90;;;;;;5095349;27;20490;-87
2022/06/01 07:49:23;;;;;;;7.72;5.53;;;13.00;99.90;;;;;;5112787;27;20051;-86
2022/06/01 07:51:49;;;;;;;8.63;5.80;;;13.10;99.90;;;;;;5111278;27;20566;-86
2022/06/01 07:54:15;;;;;;;7.18;5.72;;;13.30;99.90;;;;;;5112972;27;20031;-86
2022/06/01 07:56:41;;;;;;;7.55;5.57;;;13.50;99.90;;;;;;5130788;27;20067;-92
2022/06/01 07:59:07;;;;;;;7.05;5.80;;;13.70;99.90;;;;;;5082021;27;20089;-92
2022/06/01 08:01:33;;;;;;;6.78;5.32;;;13.80;99.90;;;;;;5101972;27;20047;-88
2022/06/01 08:04:02;;;;;;;6.38;5.72;;;14.10;99.90;;;;;;5119182;27;20039;-88
2022/06/01 08:06:27;;;;;;;7.43;5.40;;;14.40;99.90;;;;;;5115093;27;20039;-89
2022/06/01 08:08:54;;;;;;;6.13;5.22;;;14.60;99.90;;;;;;5078684;27;20073;-91
2022/06/01 08:11:21;;;;;;;7.43;6.63;;;14.80;99.90;;;;;;5079962;27;20031;-91
2022/06/01 08:13:46;;;;;;;7.97;6.70;;;15.00;99.90;;;;;;5095511;27;20043;-92
2022/06/01 08:16:12;;;;;;;6.68;6.00;;;15.20;99.90;;;;;;5080245;27;20126;-91
2022/06/01 08:18:38;;;;;;;7.38;6.50;;;16.00;99.90;;;;;;5078789;27;20106;-89
2022/06/01 08:21:04;;;;;;;7.88;5.65;;;15.40;99.90;;;;;;5094887;27;20413;-90
2022/06/01 08:23:32;;;;;;;6.38;5.78;;;15.60;99.90;;;;;;5078456;27;20124;-89
2022/06/01 08:25:59;;;;;;;8.60;5.05;;;15.70;99.90;;;;;;5094060;27;20042;-89
2022/06/01 08:28:25;;;;;;;4.82;3.92;;;15.90;99.90;;;;;;5112865;27;20120;-89
2022/06/01 08:30:52;;;;;;;4.55;3.97;;;15.90;99.90;;;;;;5111231;27;20083;-89
2022/06/01 08:33:18;;;;;;;4.30;3.90;;;15.80;99.90;;;;;;5095805;27;20397;-90
2022/06/01 08:35:47;;;;;;;5.22;4.03;;;15.80;99.90;;;;;;5095539;27;20464;-92
2022/06/01 08:38:14;;;;;;;4.35;3.88;;;15.70;99.90;;;;;;5096096;27;20036;-94
2022/06/01 08:40:50;;;;;;;4.13;3.35;;;15.70;99.90;;;;;;5079855;27;20035;-94
2022/06/01 08:43:18;;;;;;;4.47;3.60;;;15.70;99.90;;;;;;5094876;27;20478;-92
2022/06/01 08:45:49;;;;;;;6.63;4.05;;;16.90;99.90;;;;;;5079911;27;20035;-92
2022/06/01 08:48:24;;;;;;;5.03;3.80;;;15.60;99.90;;;;;;5094446;27;20042;-90
2022/06/01 08:50:52;;;;;;;4.30;3.90;;;15.70;99.90;;;;;;5095052;27;20567;-91
2022/06/01 08:53:20;;;;;;;5.20;4.18;;;15.60;99.90;;;;;;5094593;27;20049;-91
2022/06/01 08:55:50;;;;;;;4.60;3.90;;;15.70;99.90;;;;;;5110947;27;20341;-89
2022/06/01 08:58:21;;;;;;;5.45;3.80;;;15.70;99.90;;;;;;5112488;27;20492;-90
2022/06/01 09:01:23;;;;;;;4.25;3.30;;;15.70;99.90;;;;;;5093814;27;20054;-90
2022/06/01 09:04:18;;;;;;;3.15;2.85;;;15.90;99.90;;;;;;5111873;27;20051;-87
2022/06/01 09:07:02;;;;;;;3.08;2.78;;;16.10;99.90;;;;;;5129457;27;20131;-87
2022/06/01 09:09:42;;;;;;;4.15;1.90;;;16.20;99.90;;;;;;5093004;27;20526;-88
2022/06/01 09:12:07;;;;;;;4.10;2.70;;;16.20;99.90;;;;;;5111461;27;20031;-88
2022/06/01 09:14:36;;;;;;;2.58;2.22;;;16.10;99.90;;;;;;5093233;27;20494;-89
2022/06/01 09:17:02;;;;;;;5.32;3.50;;;16.10;99.90;;;;;;5109866;27;20042;-89
2022/06/01 09:22:41;;;;;;;3.28;1.67;;;16.10;99.90;;;;;;5112964;27;20241;-88
2022/06/01 09:25:25;;;;;;;2.78;2.30;;;16.10;99.90;;;;;;5085301;27;20074;-89
2022/06/01 09:27:53;;;;;;;2.33;2.00;;;16.30;99.90;;;;;;5113583;27;20058;-88
2022/06/01 09:30:26;;;;;;;2.63;1.88;;;16.40;99.90;;;;;;5092776;27;20046;-88
2022/06/01 09:33:20;;;;;;;2.38;2.15;;;16.40;99.90;;;;;;5094128;27;20402;-88
2022/06/01 09:36:24;;;;;;;2.72;2.35;;;16.70;99.90;;;;;;5110597;27;20059;-86
2022/06/01 09:38:56;;;;;;;2.90;2.10;;;16.90;99.90;;;;;;5095091;27;20039;-84
2022/06/01 09:41:31;;;;;;;2.22;1.88;;;17.30;99.90;;;;;;5110438;27;20078;-85
2022/06/01 09:44:01;;;;;;;2.45;1.85;;;17.40;99.90;;;;;;5092974;27;20043;-88
2022/06/01 09:46:40;;;;;;;2.53;1.70;;;17.60;99.90;;;;;;5109799;27;20043;-85
2022/06/01 09:49:29;;;;;;;2.63;2.10;;;17.50;99.90;;;;;;5128014;27;20051;-83
2022/06/01 09:52:27;;;;;;;2.75;2.00;;;17.40;99.90;;;;;;5126964;27;20493;-87
2022/06/01 09:54:56;;;;;;;2.13;1.42;;;17.50;99.90;;;;;;5109686;27;20379;-88
2022/06/01 09:57:33;;;;;;;1.08;1.00;;;17.50;99.90;;;;;;5128251;27;20123;-87
2022/06/01 10:08:25;;;;;;;1.05;0.88;;;17.00;99.90;;;;;;5110781;27;20099;-92
2022/06/01 10:11:01;;;;;;;1.08;0.52;;;17.00;99.90;;;;;;5093932;27;20071;-90
2022/06/01 10:13:34;;;;;;;0.88;0.65;;;16.90;99.90;;;;;;5111363;27;20043;-91
2022/06/01 10:16:22;;;;;;;1.38;0.63;;;16.90;99.90;;;;;;5100521;27;20077;-94
2022/06/01 10:18:50;;;;;;;0.75;0.50;;;16.90;99.90;;;;;;5115789;27;20067;-94
2022/06/01 10:21:23;;;;;;;0.73;0.60;;;17.00;99.90;;;;;;5079363;27;20039;-90
2022/06/01 10:23:56;;;;;;;0.93;0.50;;;17.30;99.90;;;;;;5094237;27;20553;-91
2022/06/01 10:26:44;;;;;;;0.47;0.40;;;17.40;99.90;;;;;;5093199;27;20050;-92
2022/06/01 10:29:18;;;;;;;1.50;0.30;;;17.50;99.90;;;;;;5093905;27;20499;-92
2022/06/01 10:32:17;;;;;;;1.05;0.60;;;17.60;99.90;;;;;;5093638;27;20498;-93
2022/06/01 10:34:57;;;;;;;0.95;0.50;;;17.50;99.90;;;;;;5092448;27;20054;-93
2022/06/01 10:37:28;;;;;;;1.25;0.68;;;17.50;99.90;;;;;;5111968;27;20039;-94
2022/06/01 10:40:12;;;;;;;3.60;0.70;;;17.50;99.90;;;;;;5095406;28;20513;-94
2022/06/01 10:45:34;;;;;;;0.98;0.50;;;18.20;99.90;;;;;;5117540;28;20134;-93
2022/06/01 10:48:12;;;;;;;0.70;0.38;;;18.50;99.90;;;;;;5097549;28;20056;-95
2022/06/01 10:51:17;;;;;;;0.93;0.50;;;19.00;99.90;;;;;;5097351;27;20070;-84
2022/06/01 10:54:17;;;;;;;1.13;0.55;;;19.20;99.90;;;;;;5065229;28;20039;-88
2022/06/01 10:56:43;;;;;;;0.50;0.47;;;19.20;99.90;;;;;;5114625;27;20047;-95
2022/06/01 10:59:13;;;;;;;1.67;0.47;;;19.00;99.90;;;;;;5080856;27;20043;-86
2022/06/01 11:02:21;;;;;;;1.27;0.43;;;18.90;99.90;;;;;;5131141;27;20051;-89
2022/06/01 11:05:31;;;;;;;1.08;0.52;;;18.80;99.90;;;;;;5132197;27;20051;-89
2022/06/01 11:08:20;;;;;;;1.95;0.68;;;19.00;99.90;;;;;;5034784;28;20044;-85
2022/06/01 11:11:18;;;;;;;0.95;0.60;;;19.10;99.90;;;;;;5089170;27;20047;-84
2022/06/01 11:14:17;;;;;;;2.03;0.85;;;18.90;99.90;;;;;;5135282;27;20082;-85
2022/06/01 11:17:02;;;;;;;1.65;0.80;;;18.70;99.90;;;;;;5133638;27;20035;-84
2022/06/01 11:20:09;;;;;;;1.38;0.75;;;18.50;99.90;;;;;;5134414;27;20039;-84
2022/06/01 11:23:09;;;;;;;0.77;0.73;;;18.20;99.90;;;;;;5132041;27;20074;-83
2022/06/01 11:25:40;;;;;;;2.30;1.50;;;17.90;99.90;;;;;;5116322;27;20443;-84
2022/06/01 11:28:15;;;;;;;0.95;0.63;;;16.90;99.90;;;;;;5130505;27;20051;-85
2022/06/01 11:30:55;;;;;;;8.23;1.30;;;17.60;99.90;;;;;;5111004;27;20050;-86
2022/06/01 11:33:36;;;;;;;1.75;1.20;;;17.40;99.90;;;;;;5095512;27;20494;-85
2022/06/01 11:36:18;;;;;;;1.65;1.08;;;17.40;99.90;;;;;;5129932;27;20092;-86
2022/06/01 11:38:52;;;;;;;5.40;0.88;;;17.40;99.90;;;;;;5094880;27;20596;-86
2022/06/01 11:41:31;;;;;;;0.57;0.52;;;17.50;99.90;;;;;;5094926;27;20354;-86
2022/06/01 11:44:08;;;;;;;0.82;0.68;;;17.60;99.90;;;;;;5129586;27;20058;-86
2022/06/01 11:46:52;;;;;;;0.70;0.50;;;17.70;99.90;;;;;;5095369;27;20054;-85
2022/06/01 11:49:37;;;;;;;0.43;0.30;;;17.80;99.90;;;;;;5129580;27;20413;-84
2022/06/01 11:52:30;;;;;;;1.23;0.50;;;17.90;99.90;;;;;;5129689;27;20067;-84
2022/06/01 11:55:28;;;;;;;0.70;0.52;;;17.80;99.90;;;;;;5112227;27;20523;-85
2022/06/01 11:58:07;;;;;;;1.70;0.50;;;17.90;99.90;;;;;;5103814;27;20058;-87
2022/06/01 12:00:48;;;;;;;0.57;0.30;;;18.00;99.90;;;;;;5130108;27;20525;-86
2022/06/01 12:03:19;;;;;;;1.10;0.55;;;18.00;99.90;;;;;;5130874;27;20081;-84
2022/06/01 12:06:23;;;;;;;0.40;0.40;;;18.00;99.90;;;;;;5129124;27;20418;-83
2022/06/01 12:09:00;;;;;;;0.60;0.30;;;17.90;99.90;;;;;;5091346;27;20062;-87
2022/06/01 12:11:38;;;;;;;0.60;0.30;;;17.90;99.90;;;;;;5112138;27;20096;-88
2022/06/01 12:14:38;;;;;;;0.75;0.52;;;18.10;99.90;;;;;;5093475;27;20043;-89
2022/06/01 12:17:16;;;;;;;0.60;0.47;;;18.20;99.50;;;;;;5111678;27;20435;-87
2022/06/01 12:19:47;;;;;;;2.33;0.75;;;18.10;99.90;;;;;;5094338;27;20043;-87
2022/06/01 12:28:54;;;;;;;6.18;0.50;;;18.30;99.50;;;;;;5116190;27;20070;-91
2022/06/01 12:31:24;;;;;;;1.33;0.50;;;18.20;98.70;;;;;;5099127;27;20390;-92
2022/06/01 12:34:07;;;;;;;4.55;0.65;;;18.00;99.90;;;;;;5113599;27;20065;-91
2022/06/01 12:37:08;;;;;;;1.10;0.68;;;17.70;99.90;;;;;;5094495;27;20050;-89
2022/06/01 12:39:40;;;;;;;0.63;0.60;;;17.50;99.90;;;;;;5094554;27;20043;-91
2022/06/01 12:42:36;;;;;;;0.70;0.50;;;17.30;99.90;;;;;;5113981;27;20061;-89
2022/06/01 12:45:06;;;;;;;1.13;0.88;;;17.20;99.90;;;;;;5094839;27;20337;-91
2022/06/01 12:47:43;;;;;;;1.38;0.70;;;17.10;99.90;;;;;;5097377;27;20129;-90
2022/06/01 12:50:14;;;;;;;1.23;0.90;;;17.20;99.90;;;;;;5138673;27;20047;-90
2022/06/01 12:52:40;;;;;;;0.70;0.70;;;17.40;99.90;;;;;;5122956;27;20051;-91
2022/06/01 12:55:17;;;;;;;1.63;1.15;;;17.70;99.90;;;;;;5098804;27;20039;-91
2022/06/01 12:57:54;;;;;;;6.47;0.85;;;17.90;99.90;;;;;;5117369;27;20058;-91
2022/06/01 13:00:25;;;;;;;1.45;0.90;;;17.90;99.90;;;;;;5103074;27;20047;-91
2022/06/01 13:02:52;;;;;;;1.70;1.27;;;17.80;99.90;;;;;;5102629;27;20052;-89
2022/06/01 13:05:26;;;;;;;1.92;1.33;;;17.70;99.90;;;;;;5115280;27;20129;-89
2022/06/01 13:07:59;;;;;;;3.95;1.20;;;17.30;99.90;;;;;;5113227;27;20031;-89
2022/06/01 13:10:28;;;;;;;1.00;0.68;;;17.00;99.90;;;;;;5111563;27;20381;-91
2022/06/01 13:13:11;;;;;;;0.80;0.50;;;16.70;99.90;;;;;;5095561;27;20096;-91
2022/06/01 13:15:39;;;;;;;0.60;0.60;;;16.40;99.90;;;;;;5097450;27;20430;-93
2022/06/01 13:18:11;;;;;;;0.98;0.70;;;16.00;99.90;;;;;;5078058;27;20413;-90
2022/06/01 13:20:38;;;;;;;1.08;0.70;;;15.80;99.90;;;;;;5095313;27;20043;-91
2022/06/01 13:23:17;;;;;;;1.58;1.05;;;15.60;99.90;;;;;;5097191;27;20479;-96
2022/06/01 13:25:43;;;;;;;1.38;0.75;;;15.40;99.90;;;;;;5098048;27;20035;-91
2022/06/01 13:28:10;;;;;;;1.52;1.08;;;15.20;99.90;;;;;;5078283;27;20046;-92
2022/06/01 13:30:37;;;;;;;2.22;1.00;;;15.10;99.90;;;;;;5095211;27;20095;-92
2022/06/01 13:33:22;;;;;;;1.67;1.00;;;15.00;99.90;;;;;;5079642;27;20125;-92
2022/06/01 13:36:00;;;;;;;1.52;1.10;;;14.90;99.90;;;;;;5095490;27;20039;-92
2022/06/01 13:38:40;;;;;;;2.78;1.08;;;14.90;99.90;;;;;;5098055;27;20057;-92
2022/06/01 13:41:31;;;;;;;1.50;1.02;;;14.90;99.90;;;;;;5095873;27;20058;-88
2022/06/01 13:43:57;;;;;;;2.63;1.08;;;15.00;99.90;;;;;;5093897;27;20058;-90
2022/06/01 13:46:32;;;;;;;1.42;0.70;;;15.00;99.90;;;;;;5095543;27;20039;-91
2022/06/01 13:49:02;;;;;;;1.10;0.82;;;15.10;99.90;;;;;;5094166;27;20119;-90
2022/06/01 13:51:30;;;;;;;2.80;0.80;;;15.10;99.90;;;;;;5116557;27;20074;-92
2022/06/01 13:54:30;;;;;;;1.30;1.17;;;15.30;99.90;;;;;;5108367;27;20043;-93
2022/06/01 13:57:21;;;;;;;1.63;1.00;;;15.50;99.90;;;;;;5106361;27;20035;-95
2022/06/01 14:00:18;;;;;;;1.50;0.82;;;15.80;99.90;;;;;;5110821;27;20058;-94
2022/06/01 14:02:54;;;;;;;1.25;1.00;;;16.00;99.90;;;;;;5050331;28;20113;-96
2022/06/01 14:05:31;;;;;;;1.83;1.10;;;16.20;99.90;;;;;;5055702;28;20619;-96
2022/06/01 14:08:06;;;;;;;1.98;1.30;;;16.30;99.90;;;;;;5056462;28;20576;-93
2022/06/01 14:10:45;;;;;;;1.08;0.80;;;16.40;99.90;;;;;;5061433;28;20040;-92
2022/06/01 14:13:12;;;;;;;1.42;0.98;;;16.60;99.90;;;;;;5064476;28;20062;-92
2022/06/01 14:15:39;;;;;;;2.22;0.65;;;16.70;99.90;;;;;;5037277;28;20542;-91
2022/06/01 14:18:11;;;;;;;0.70;0.60;;;16.90;99.90;;;;;;5038680;28;20047;-87
2022/06/01 14:20:37;;;;;;;1.55;0.80;;;16.90;99.90;;;;;;5053098;28;20080;-90
2022/06/01 14:23:03;;;;;;;2.30;0.95;;;16.90;99.90;;;;;;5038304;28;20051;-94
2022/06/01 14:28:29;;;;;;;0.70;0.50;;;17.00;99.90;;;;;;5077483;28;20044;-93
2022/06/01 14:31:03;;;;;;;0.68;0.25;;;17.20;99.90;;;;;;5048232;28;20040;-92
2022/06/01 14:33:29;;;;;;;0.50;0.30;;;17.40;99.90;;;;;;5038188;28;20056;-92
2022/06/01 14:35:55;;;;;;;0.43;0.40;;;17.50;99.90;;;;;;5054051;28;20557;-92
2022/06/01 14:38:22;;;;;;;0.85;0.40;;;17.60;99.90;;;;;;5037890;28;20098;-93
2022/06/01 14:40:48;;;;;;;2.15;0.43;;;17.70;99.90;;;;;;5036096;28;20040;-94
2022/06/01 14:43:17;;;;;;;0.52;0.20;;;17.90;99.90;;;;;;5038110;28;20036;-94
2022/06/01 14:45:43;;;;;;;1.27;0.35;;;18.10;99.90;;;;;;5052681;28;20112;-96
2022/06/01 14:48:10;;;;;;;0.47;0.30;;;18.10;99.90;;;;;;5043775;28;20060;-90
2022/06/01 14:50:36;;;;;;;0.70;0.20;;;18.10;99.90;;;;;;5040970;28;20052;-90
2022/06/01 14:53:18;;;;;;;0.90;0.35;;;18.40;99.90;;;;;;5037553;28;20191;-88